sensor_id;sensor_type;location;lat;lon;timestamp;P1;durP1;ratioP1;P2;durP2;ratioP2
35990;SDS011;22064;42.672;23.282;2022-09-13T00:19:51;9.10;;;5.45;;
35990;SDS011;22064;42.672;23.282;2022-09-13T00:22:17;10.20;;;5.50;;
35990;SDS011;22064;42.672;23.282;2022-09-13T00:28:36;7.63;;;5.03;;
35990;SDS011;22064;42.672;23.282;2022-09-13T00:31:03;8.38;;;5.28;;
35990;SDS011;22064;42.672;23.282;2022-09-13T00:33:30;9.85;;;5.82;;
35990;SDS011;22064;42.672;23.282;2022-09-13T00:35:55;9.68;;;5.50;;
35990;SDS011;22064;42.672;23.282;2022-09-13T00:38:21;9.40;;;5.43;;
35990;SDS011;22064;42.672;23.282;2022-09-13T00:40:47;11.80;;;5.28;;
35990;SDS011;22064;42.672;23.282;2022-09-13T00:43:17;13.27;;;6.63;;
35990;SDS011;22064;42.672;23.282;2022-09-13T00:45:45;8.63;;;5.15;;
35990;SDS011;22064;42.672;23.282;2022-09-13T06:46:38;6.40;;;3.80;;
35990;SDS011;22064;42.672;23.282;2022-09-13T06:49:05;7.70;;;3.40;;
35990;SDS011;22064;42.672;23.282;2022-09-13T06:51:31;7.95;;;4.00;;
35990;SDS011;22064;42.672;23.282;2022-09-13T06:53:58;6.68;;;3.97;;
35990;SDS011;22064;42.672;23.282;2022-09-13T06:56:29;5.85;;;3.90;;
35990;SDS011;22064;42.672;23.282;2022-09-13T06:59:00;6.57;;;3.63;;
35990;SDS011;22064;42.672;23.282;2022-09-13T07:01:40;7.28;;;3.70;;
35990;SDS011;22064;42.672;23.282;2022-09-13T07:04:14;4.43;;;3.42;;
35990;SDS011;22064;42.672;23.282;2022-09-13T07:06:43;6.45;;;3.78;;
35990;SDS011;22064;42.672;23.282;2022-09-13T07:09:13;9.02;;;3.72;;
35990;SDS011;22064;42.672;23.282;2022-09-13T07:11:42;6.90;;;3.53;;
35990;SDS011;22064;42.672;23.282;2022-09-13T07:14:15;9.88;;;3.90;;
35990;SDS011;22064;42.672;23.282;2022-09-13T07:16:42;4.78;;;3.35;;
35990;SDS011;22064;42.672;23.282;2022-09-13T07:19:12;4.57;;;3.50;;
35990;SDS011;22064;42.672;23.282;2022-09-13T07:21:40;4.95;;;3.13;;
35990;SDS011;22064;42.672;23.282;2022-09-13T07:24:06;6.65;;;3.50;;
35990;SDS011;22064;42.672;23.282;2022-09-13T07:26:32;5.00;;;3.17;;
35990;SDS011;22064;42.672;23.282;2022-09-13T07:28:59;4.97;;;3.15;;
35990;SDS011;22064;42.672;23.282;2022-09-13T07:31:30;3.75;;;3.00;;
35990;SDS011;22064;42.672;23.282;2022-09-13T07:34:00;8.35;;;3.35;;
35990;SDS011;22064;42.672;23.282;2022-09-13T07:36:32;6.82;;;3.50;;
35990;SDS011;22064;42.672;23.282;2022-09-13T07:38:59;6.32;;;3.50;;
35990;SDS011;22064;42.672;23.282;2022-09-13T07:49:15;5.57;;;3.45;;
35990;SDS011;22064;42.672;23.282;2022-09-13T07:51:42;6.43;;;4.27;;
35990;SDS011;22064;42.672;23.282;2022-09-13T07:54:09;4.40;;;3.50;;
35990;SDS011;22064;42.672;23.282;2022-09-13T07:56:37;7.95;;;3.30;;
35990;SDS011;22064;42.672;23.282;2022-09-13T07:59:04;4.20;;;3.08;;
35990;SDS011;22064;42.672;23.282;2022-09-13T08:04:11;5.80;;;2.95;;
35990;SDS011;22064;42.672;23.282;2022-09-13T08:06:39;4.85;;;3.45;;
35990;SDS011;22064;42.672;23.282;2022-09-13T08:09:07;6.68;;;3.28;;
35990;SDS011;22064;42.672;23.282;2022-09-13T08:11:35;3.95;;;2.75;;
35990;SDS011;22064;42.672;23.282;2022-09-13T08:14:07;3.78;;;2.90;;
35990;SDS011;22064;42.672;23.282;2022-09-13T08:16:34;6.60;;;2.95;;
35990;SDS011;22064;42.672;23.282;2022-09-13T08:19:01;4.90;;;2.80;;
35990;SDS011;22064;42.672;23.282;2022-09-13T08:21:35;6.10;;;3.17;;
35990;SDS011;22064;42.672;23.282;2022-09-13T08:24:03;4.40;;;2.83;;
35990;SDS011;22064;42.672;23.282;2022-09-13T08:26:31;5.53;;;3.00;;
35990;SDS011;22064;42.672;23.282;2022-09-13T08:28:58;6.20;;;3.03;;
35990;SDS011;22064;42.672;23.282;2022-09-13T08:31:25;5.07;;;3.05;;
35990;SDS011;22064;42.672;23.282;2022-09-13T08:33:52;4.78;;;2.60;;
35990;SDS011;22064;42.672;23.282;2022-09-13T08:36:18;4.28;;;3.08;;
35990;SDS011;22064;42.672;23.282;2022-09-13T08:38:47;4.40;;;2.60;;
35990;SDS011;22064;42.672;23.282;2022-09-13T09:10:24;3.75;;;2.83;;
35990;SDS011;22064;42.672;23.282;2022-09-13T09:12:56;3.17;;;2.53;;
35990;SDS011;22064;42.672;23.282;2022-09-13T09:18:18;3.53;;;2.45;;
35990;SDS011;22064;42.672;23.282;2022-09-13T09:20:49;3.67;;;2.63;;
35990;SDS011;22064;42.672;23.282;2022-09-13T09:25:53;4.32;;;2.70;;
35990;SDS011;22064;42.672;23.282;2022-09-13T09:28:21;3.55;;;2.03;;
35990;SDS011;22064;42.672;23.282;2022-09-13T09:33:51;3.60;;;2.35;;
35990;SDS011;22064;42.672;23.282;2022-09-13T09:36:46;3.72;;;2.80;;
35990;SDS011;22064;42.672;23.282;2022-09-13T09:39:25;5.43;;;2.65;;
35990;SDS011;22064;42.672;23.282;2022-09-13T09:41:56;5.32;;;2.55;;
35990;SDS011;22064;42.672;23.282;2022-09-13T09:44:23;3.35;;;2.50;;
35990;SDS011;22064;42.672;23.282;2022-09-13T09:46:56;3.90;;;2.78;;
35990;SDS011;22064;42.672;23.282;2022-09-13T09:49:46;5.90;;;2.85;;
35990;SDS011;22064;42.672;23.282;2022-09-13T09:57:52;5.07;;;3.10;;
35990;SDS011;22064;42.672;23.282;2022-09-13T10:00:20;3.53;;;3.22;;
35990;SDS011;22064;42.672;23.282;2022-09-13T10:02:48;6.07;;;2.67;;
35990;SDS011;22064;42.672;23.282;2022-09-13T10:05:19;3.13;;;2.70;;
35990;SDS011;22064;42.672;23.282;2022-09-13T10:07:52;5.55;;;2.80;;
35990;SDS011;22064;42.672;23.282;2022-09-13T10:10:24;3.15;;;2.70;;
35990;SDS011;22064;42.672;23.282;2022-09-13T10:12:55;3.38;;;3.05;;
35990;SDS011;22064;42.672;23.282;2022-09-13T10:15:25;3.97;;;2.95;;
35990;SDS011;22064;42.672;23.282;2022-09-13T10:20:39;3.28;;;2.60;;
35990;SDS011;22064;42.672;23.282;2022-09-13T10:28:01;5.60;;;3.08;;
35990;SDS011;22064;42.672;23.282;2022-09-13T10:36:20;5.30;;;3.30;;
35990;SDS011;22064;42.672;23.282;2022-09-13T10:38:56;4.80;;;2.80;;
35990;SDS011;22064;42.672;23.282;2022-09-13T10:41:25;3.97;;;2.90;;
35990;SDS011;22064;42.672;23.282;2022-09-13T10:43:57;3.80;;;2.80;;
35990;SDS011;22064;42.672;23.282;2022-09-13T10:46:28;5.55;;;2.72;;
35990;SDS011;22064;42.672;23.282;2022-09-13T10:48:56;4.20;;;2.90;;
35990;SDS011;22064;42.672;23.282;2022-09-13T10:54:06;5.60;;;2.97;;
35990;SDS011;22064;42.672;23.282;2022-09-13T10:56:43;4.88;;;2.95;;
35990;SDS011;22064;42.672;23.282;2022-09-13T10:59:13;6.45;;;3.30;;
35990;SDS011;22064;42.672;23.282;2022-09-13T11:07:22;4.68;;;3.08;;
35990;SDS011;22064;42.672;23.282;2022-09-13T11:32:07;2.90;;;2.30;;
35990;SDS011;22064;42.672;23.282;2022-09-13T11:34:57;3.60;;;2.50;;
35990;SDS011;22064;42.672;23.282;2022-09-13T11:45:47;4.03;;;2.60;;
35990;SDS011;22064;42.672;23.282;2022-09-13T11:51:03;2.75;;;2.08;;
35990;SDS011;22064;42.672;23.282;2022-09-13T11:54:15;4.10;;;2.60;;
35990;SDS011;22064;42.672;23.282;2022-09-13T11:56:34;2.80;;;2.60;;
35990;SDS011;22064;42.672;23.282;2022-09-13T11:59:13;3.28;;;2.80;;
35990;SDS011;22064;42.672;23.282;2022-09-13T12:01:49;3.47;;;2.38;;
35990;SDS011;22064;42.672;23.282;2022-09-13T12:04:21;3.65;;;2.53;;
35990;SDS011;22064;42.672;23.282;2022-09-13T12:06:53;7.88;;;2.70;;
35990;SDS011;22064;42.672;23.282;2022-09-13T12:09:28;2.47;;;2.28;;
35990;SDS011;22064;42.672;23.282;2022-09-13T12:12:08;3.72;;;2.75;;
35990;SDS011;22064;42.672;23.282;2022-09-13T12:17:51;2.40;;;2.15;;
35990;SDS011;22064;42.672;23.282;2022-09-13T12:20:28;2.20;;;2.00;;
35990;SDS011;22064;42.672;23.282;2022-09-13T12:23:01;2.92;;;2.40;;
35990;SDS011;22064;42.672;23.282;2022-09-13T12:25:41;5.55;;;2.42;;
35990;SDS011;22064;42.672;23.282;2022-09-13T12:30:43;5.50;;;2.80;;
35990;SDS011;22064;42.672;23.282;2022-09-13T12:33:13;3.97;;;2.38;;
35990;SDS011;22064;42.672;23.282;2022-09-13T12:35:44;3.65;;;2.47;;
35990;SDS011;22064;42.672;23.282;2022-09-13T12:38:26;3.33;;;2.40;;
35990;SDS011;22064;42.672;23.282;2022-09-13T12:46:40;2.50;;;2.30;;
35990;SDS011;22064;42.672;23.282;2022-09-13T12:49:32;5.85;;;2.42;;
35990;SDS011;22064;42.672;23.282;2022-09-13T12:52:08;3.60;;;2.30;;
35990;SDS011;22064;42.672;23.282;2022-09-13T12:55:02;2.58;;;2.25;;
35990;SDS011;22064;42.672;23.282;2022-09-13T12:58:03;3.47;;;2.63;;
35990;SDS011;22064;42.672;23.282;2022-09-13T13:04:07;3.55;;;2.20;;
35990;SDS011;22064;42.672;23.282;2022-09-13T13:09:47;4.78;;;2.55;;
35990;SDS011;22064;42.672;23.282;2022-09-13T13:12:25;3.58;;;2.35;;
35990;SDS011;22064;42.672;23.282;2022-09-13T13:14:57;4.07;;;2.50;;
35990;SDS011;22064;42.672;23.282;2022-09-13T13:31:07;3.28;;;2.58;;
35990;SDS011;22064;42.672;23.282;2022-09-13T13:33:57;5.30;;;2.55;;
35990;SDS011;22064;42.672;23.282;2022-09-13T13:39:08;4.65;;;2.83;;
35990;SDS011;22064;42.672;23.282;2022-09-13T13:41:39;3.30;;;2.72;;
35990;SDS011;22064;42.672;23.282;2022-09-13T13:46:46;3.00;;;2.70;;
35990;SDS011;22064;42.672;23.282;2022-09-13T13:54:31;3.72;;;3.10;;
35990;SDS011;22064;42.672;23.282;2022-09-13T14:02:40;3.97;;;2.60;;
35990;SDS011;22064;42.672;23.282;2022-09-13T14:24:46;5.15;;;2.92;;
35990;SDS011;22064;42.672;23.282;2022-09-13T14:27:34;5.75;;;3.05;;
35990;SDS011;22064;42.672;23.282;2022-09-13T14:30:04;5.85;;;3.50;;
35990;SDS011;22064;42.672;23.282;2022-09-13T14:32:44;4.18;;;3.22;;
35990;SDS011;22064;42.672;23.282;2022-09-13T14:37:56;2.92;;;2.63;;
35990;SDS011;22064;42.672;23.282;2022-09-13T14:40:58;3.05;;;2.75;;
35990;SDS011;22064;42.672;23.282;2022-09-13T14:43:26;3.80;;;3.00;;
35990;SDS011;22064;42.672;23.282;2022-09-13T14:49:13;3.33;;;2.55;;
35990;SDS011;22064;42.672;23.282;2022-09-13T14:51:24;3.70;;;3.05;;
35990;SDS011;22064;42.672;23.282;2022-09-13T14:53:56;3.80;;;2.90;;
35990;SDS011;22064;42.672;23.282;2022-09-13T14:56:34;6.25;;;3.10;;
35990;SDS011;22064;42.672;23.282;2022-09-13T14:59:12;2.80;;;2.55;;
35990;SDS011;22064;42.672;23.282;2022-09-13T15:01:50;3.88;;;2.42;;
35990;SDS011;22064;42.672;23.282;2022-09-13T15:04:16;2.83;;;2.60;;
35990;SDS011;22064;42.672;23.282;2022-09-13T15:06:43;3.03;;;2.70;;
35990;SDS011;22064;42.672;23.282;2022-09-13T15:12:17;3.10;;;2.80;;
35990;SDS011;22064;42.672;23.282;2022-09-13T15:19:49;3.28;;;2.60;;
35990;SDS011;22064;42.672;23.282;2022-09-13T15:22:30;6.80;;;2.88;;
35990;SDS011;22064;42.672;23.282;2022-09-13T15:24:57;5.90;;;3.30;;
35990;SDS011;22064;42.672;23.282;2022-09-13T15:30:18;4.65;;;2.67;;
35990;SDS011;22064;42.672;23.282;2022-09-13T15:32:49;4.85;;;2.95;;
35990;SDS011;22064;42.672;23.282;2022-09-13T15:35:46;3.63;;;3.20;;
35990;SDS011;22064;42.672;23.282;2022-09-13T15:38:26;6.85;;;3.50;;
35990;SDS011;22064;42.672;23.282;2022-09-13T15:41:13;5.28;;;3.10;;
35990;SDS011;22064;42.672;23.282;2022-09-13T15:43:43;6.70;;;3.67;;
35990;SDS011;22064;42.672;23.282;2022-09-13T15:46:15;4.75;;;3.30;;
35990;SDS011;22064;42.672;23.282;2022-09-13T15:48:43;7.45;;;3.83;;
35990;SDS011;22064;42.672;23.282;2022-09-13T15:51:15;3.40;;;2.80;;
35990;SDS011;22064;42.672;23.282;2022-09-13T15:53:43;5.10;;;3.10;;
35990;SDS011;22064;42.672;23.282;2022-09-13T15:56:14;3.60;;;3.15;;
35990;SDS011;22064;42.672;23.282;2022-09-13T15:58:42;3.20;;;2.90;;
35990;SDS011;22064;42.672;23.282;2022-09-13T16:01:09;3.88;;;3.38;;
35990;SDS011;22064;42.672;23.282;2022-09-13T16:03:36;5.72;;;3.20;;
35990;SDS011;22064;42.672;23.282;2022-09-13T16:06:03;6.32;;;3.88;;
35990;SDS011;22064;42.672;23.282;2022-09-13T16:08:30;5.85;;;3.10;;
35990;SDS011;22064;42.672;23.282;2022-09-13T16:10:56;4.07;;;3.53;;
35990;SDS011;22064;42.672;23.282;2022-09-13T16:13:21;6.07;;;3.83;;
35990;SDS011;22064;42.672;23.282;2022-09-13T16:15:48;4.95;;;3.60;;
35990;SDS011;22064;42.672;23.282;2022-09-13T16:18:14;4.22;;;3.47;;
35990;SDS011;22064;42.672;23.282;2022-09-13T16:20:41;4.80;;;3.60;;
35990;SDS011;22064;42.672;23.282;2022-09-13T16:23:08;4.00;;;3.60;;
35990;SDS011;22064;42.672;23.282;2022-09-13T16:25:33;5.97;;;3.72;;
35990;SDS011;22064;42.672;23.282;2022-09-13T16:28:00;8.07;;;4.25;;
35990;SDS011;22064;42.672;23.282;2022-09-13T16:30:26;5.30;;;3.80;;
35990;SDS011;22064;42.672;23.282;2022-09-13T16:32:54;5.22;;;3.35;;
35990;SDS011;22064;42.672;23.282;2022-09-13T16:35:20;5.65;;;3.92;;
35990;SDS011;22064;42.672;23.282;2022-09-13T16:37:47;7.30;;;3.80;;
35990;SDS011;22064;42.672;23.282;2022-09-13T16:40:16;5.07;;;3.87;;
35990;SDS011;22064;42.672;23.282;2022-09-13T16:42:43;6.43;;;3.80;;
35990;SDS011;22064;42.672;23.282;2022-09-13T16:45:09;6.78;;;3.78;;
35990;SDS011;22064;42.672;23.282;2022-09-13T16:47:36;9.30;;;4.80;;
35990;SDS011;22064;42.672;23.282;2022-09-13T16:50:02;6.80;;;4.28;;
35990;SDS011;22064;42.672;23.282;2022-09-13T16:52:29;5.72;;;3.97;;
35990;SDS011;22064;42.672;23.282;2022-09-13T16:54:54;7.72;;;4.45;;
35990;SDS011;22064;42.672;23.282;2022-09-13T16:57:21;6.82;;;4.75;;
35990;SDS011;22064;42.672;23.282;2022-09-13T16:59:46;6.95;;;4.20;;
35990;SDS011;22064;42.672;23.282;2022-09-13T17:02:12;6.85;;;4.57;;
35990;SDS011;22064;42.672;23.282;2022-09-13T17:04:38;6.75;;;4.45;;
35990;SDS011;22064;42.672;23.282;2022-09-13T17:07:04;6.00;;;4.38;;
35990;SDS011;22064;42.672;23.282;2022-09-13T17:09:32;5.32;;;3.92;;
35990;SDS011;22064;42.672;23.282;2022-09-13T17:11:58;5.40;;;4.45;;
35990;SDS011;22064;42.672;23.282;2022-09-13T17:14:24;6.20;;;4.20;;
35990;SDS011;22064;42.672;23.282;2022-09-13T17:16:51;5.82;;;4.38;;
35990;SDS011;22064;42.672;23.282;2022-09-13T17:19:20;6.90;;;4.55;;
35990;SDS011;22064;42.672;23.282;2022-09-13T17:21:47;8.23;;;4.65;;
35990;SDS011;22064;42.672;23.282;2022-09-13T17:24:14;8.10;;;4.60;;
35990;SDS011;22064;42.672;23.282;2022-09-13T17:26:40;5.75;;;4.40;;
35990;SDS011;22064;42.672;23.282;2022-09-13T17:29:07;7.40;;;5.05;;
35990;SDS011;22064;42.672;23.282;2022-09-13T17:31:33;7.88;;;5.10;;
35990;SDS011;22064;42.672;23.282;2022-09-13T17:33:58;8.13;;;5.05;;
35990;SDS011;22064;42.672;23.282;2022-09-13T17:36:24;6.97;;;4.78;;
35990;SDS011;22064;42.672;23.282;2022-09-13T17:38:53;9.85;;;5.05;;
35990;SDS011;22064;42.672;23.282;2022-09-13T17:41:20;12.38;;;4.82;;
35990;SDS011;22064;42.672;23.282;2022-09-13T17:43:45;8.10;;;4.80;;
35990;SDS011;22064;42.672;23.282;2022-09-13T17:46:12;6.95;;;5.10;;
35990;SDS011;22064;42.672;23.282;2022-09-13T17:48:45;7.72;;;4.97;;
35990;SDS011;22064;42.672;23.282;2022-09-13T17:51:12;10.93;;;5.15;;
35990;SDS011;22064;42.672;23.282;2022-09-13T17:53:40;7.90;;;4.75;;
35990;SDS011;22064;42.672;23.282;2022-09-13T17:56:08;7.57;;;4.93;;
35990;SDS011;22064;42.672;23.282;2022-09-13T17:58:34;8.48;;;4.75;;
35990;SDS011;22064;42.672;23.282;2022-09-13T18:03:29;7.50;;;4.63;;
35990;SDS011;22064;42.672;23.282;2022-09-13T18:05:59;7.38;;;4.45;;
35990;SDS011;22064;42.672;23.282;2022-09-13T18:10:52;8.10;;;4.75;;
35990;SDS011;22064;42.672;23.282;2022-09-13T18:13:17;10.48;;;5.47;;
35990;SDS011;22064;42.672;23.282;2022-09-13T18:15:43;6.95;;;4.38;;
35990;SDS011;22064;42.672;23.282;2022-09-13T18:18:10;7.50;;;4.68;;
35990;SDS011;22064;42.672;23.282;2022-09-13T18:20:37;10.07;;;5.00;;
35990;SDS011;22064;42.672;23.282;2022-09-13T18:23:03;7.30;;;4.78;;
35990;SDS011;22064;42.672;23.282;2022-09-13T18:25:29;7.00;;;4.63;;
35990;SDS011;22064;42.672;23.282;2022-09-13T18:27:55;9.18;;;5.05;;
35990;SDS011;22064;42.672;23.282;2022-09-13T18:30:21;8.55;;;4.57;;
35990;SDS011;22064;42.672;23.282;2022-09-13T18:32:46;7.53;;;5.05;;
35990;SDS011;22064;42.672;23.282;2022-09-13T18:35:12;7.63;;;5.10;;
35990;SDS011;22064;42.672;23.282;2022-09-13T18:37:38;6.72;;;4.85;;
35990;SDS011;22064;42.672;23.282;2022-09-13T18:40:03;8.73;;;4.90;;
35990;SDS011;22064;42.672;23.282;2022-09-13T18:42:31;8.20;;;4.82;;
35990;SDS011;22064;42.672;23.282;2022-09-13T18:44:58;7.43;;;5.03;;
35990;SDS011;22064;42.672;23.282;2022-09-13T18:47:24;7.57;;;5.18;;
35990;SDS011;22064;42.672;23.282;2022-09-13T18:49:49;10.43;;;5.75;;
35990;SDS011;22064;42.672;23.282;2022-09-13T18:52:15;6.15;;;4.60;;
35990;SDS011;22064;42.672;23.282;2022-09-13T18:54:40;9.07;;;4.85;;
35990;SDS011;22064;42.672;23.282;2022-09-13T18:57:06;8.55;;;4.97;;
35990;SDS011;22064;42.672;23.282;2022-09-13T18:59:31;7.25;;;5.20;;
35990;SDS011;22064;42.672;23.282;2022-09-13T19:01:57;8.75;;;4.45;;
35990;SDS011;22064;42.672;23.282;2022-09-13T19:04:23;7.10;;;4.38;;
35990;SDS011;22064;42.672;23.282;2022-09-13T19:06:50;7.93;;;4.82;;
35990;SDS011;22064;42.672;23.282;2022-09-13T19:09:17;7.75;;;5.38;;
35990;SDS011;22064;42.672;23.282;2022-09-13T19:11:46;6.30;;;4.70;;
35990;SDS011;22064;42.672;23.282;2022-09-13T19:14:16;8.57;;;5.03;;
35990;SDS011;22064;42.672;23.282;2022-09-13T19:16:47;13.63;;;5.97;;
35990;SDS011;22064;42.672;23.282;2022-09-13T19:19:13;8.02;;;4.60;;
35990;SDS011;22064;42.672;23.282;2022-09-13T19:21:39;6.25;;;4.57;;
35990;SDS011;22064;42.672;23.282;2022-09-13T19:24:05;6.50;;;4.07;;
35990;SDS011;22064;42.672;23.282;2022-09-13T19:26:32;5.43;;;4.63;;
35990;SDS011;22064;42.672;23.282;2022-09-13T19:29:00;7.70;;;4.38;;
35990;SDS011;22064;42.672;23.282;2022-09-13T19:31:31;6.00;;;4.47;;
35990;SDS011;22064;42.672;23.282;2022-09-13T19:33:59;7.03;;;4.65;;
35990;SDS011;22064;42.672;23.282;2022-09-13T19:36:26;7.57;;;4.80;;
35990;SDS011;22064;42.672;23.282;2022-09-13T19:38:53;8.38;;;4.68;;
35990;SDS011;22064;42.672;23.282;2022-09-13T19:41:21;6.32;;;4.68;;
35990;SDS011;22064;42.672;23.282;2022-09-13T19:43:48;6.70;;;4.75;;
35990;SDS011;22064;42.672;23.282;2022-09-13T19:46:19;7.35;;;4.50;;
35990;SDS011;22064;42.672;23.282;2022-09-13T19:48:47;5.82;;;4.47;;
35990;SDS011;22064;42.672;23.282;2022-09-13T19:51:16;6.80;;;4.55;;
35990;SDS011;22064;42.672;23.282;2022-09-13T19:53:44;7.35;;;4.80;;
35990;SDS011;22064;42.672;23.282;2022-09-13T19:56:14;7.93;;;4.57;;
35990;SDS011;22064;42.672;23.282;2022-09-13T19:58:41;6.97;;;4.85;;
35990;SDS011;22064;42.672;23.282;2022-09-13T20:01:15;5.47;;;4.35;;
35990;SDS011;22064;42.672;23.282;2022-09-13T20:03:43;6.00;;;3.90;;
35990;SDS011;22064;42.672;23.282;2022-09-13T20:06:20;6.57;;;4.35;;
35990;SDS011;22064;42.672;23.282;2022-09-13T20:08:47;6.30;;;4.28;;
35990;SDS011;22064;42.672;23.282;2022-09-13T20:14:36;7.95;;;4.80;;
35990;SDS011;22064;42.672;23.282;2022-09-13T20:17:03;6.45;;;4.47;;
35990;SDS011;22064;42.672;23.282;2022-09-13T20:19:30;7.57;;;4.20;;
35990;SDS011;22064;42.672;23.282;2022-09-13T20:21:56;7.03;;;4.20;;
35990;SDS011;22064;42.672;23.282;2022-09-13T20:24:22;7.63;;;4.32;;
35990;SDS011;22064;42.672;23.282;2022-09-13T20:26:47;6.38;;;4.22;;
35990;SDS011;22064;42.672;23.282;2022-09-13T20:36:16;5.95;;;4.10;;
35990;SDS011;22064;42.672;23.282;2022-09-13T20:38:41;7.30;;;4.30;;
35990;SDS011;22064;42.672;23.282;2022-09-13T20:41:12;8.00;;;4.57;;
35990;SDS011;22064;42.672;23.282;2022-09-13T20:43:38;6.75;;;4.25;;
35990;SDS011;22064;42.672;23.282;2022-09-13T20:46:08;6.20;;;4.25;;
35990;SDS011;22064;42.672;23.282;2022-09-13T20:48:36;6.93;;;4.13;;
35990;SDS011;22064;42.672;23.282;2022-09-13T20:51:03;8.13;;;4.53;;
35990;SDS011;22064;42.672;23.282;2022-09-13T20:53:31;7.88;;;4.28;;
35990;SDS011;22064;42.672;23.282;2022-09-13T20:56:07;7.28;;;4.40;;
35990;SDS011;22064;42.672;23.282;2022-09-13T20:58:35;7.40;;;4.30;;
35990;SDS011;22064;42.672;23.282;2022-09-13T21:01:03;6.85;;;4.47;;
35990;SDS011;22064;42.672;23.282;2022-09-13T21:03:34;6.20;;;4.20;;
35990;SDS011;22064;42.672;23.282;2022-09-13T21:09:23;9.35;;;4.60;;
35990;SDS011;22064;42.672;23.282;2022-09-13T21:11:49;7.68;;;4.65;;
35990;SDS011;22064;42.672;23.282;2022-09-13T21:14:14;7.07;;;4.65;;
35990;SDS011;22064;42.672;23.282;2022-09-13T21:16:40;6.65;;;4.30;;
35990;SDS011;22064;42.672;23.282;2022-09-13T21:19:05;8.02;;;4.28;;
35990;SDS011;22064;42.672;23.282;2022-09-13T21:21:32;7.32;;;4.85;;
35990;SDS011;22064;42.672;23.282;2022-09-13T21:24:00;9.50;;;4.35;;
35990;SDS011;22064;42.672;23.282;2022-09-13T21:26:28;5.80;;;4.25;;
35990;SDS011;22064;42.672;23.282;2022-09-13T21:28:55;5.90;;;4.22;;
35990;SDS011;22064;42.672;23.282;2022-09-13T21:31:26;7.40;;;4.40;;
35990;SDS011;22064;42.672;23.282;2022-09-13T21:33:59;6.97;;;4.63;;
35990;SDS011;22064;42.672;23.282;2022-09-13T21:36:26;6.88;;;4.50;;
35990;SDS011;22064;42.672;23.282;2022-09-13T21:38:53;8.30;;;4.80;;
35990;SDS011;22064;42.672;23.282;2022-09-13T21:41:20;6.45;;;5.20;;
35990;SDS011;22064;42.672;23.282;2022-09-13T21:43:46;12.75;;;4.95;;
35990;SDS011;22064;42.672;23.282;2022-09-13T21:50:07;10.10;;;6.05;;
35990;SDS011;22064;42.672;23.282;2022-09-13T21:52:33;15.20;;;6.80;;
35990;SDS011;22064;42.672;23.282;2022-09-13T21:54:59;9.70;;;6.22;;
35990;SDS011;22064;42.672;23.282;2022-09-13T21:57:24;12.10;;;6.28;;
35990;SDS011;22064;42.672;23.282;2022-09-13T21:59:50;10.10;;;6.50;;
35990;SDS011;22064;42.672;23.282;2022-09-13T22:02:15;12.60;;;6.72;;
35990;SDS011;22064;42.672;23.282;2022-09-13T22:04:41;10.50;;;6.75;;
35990;SDS011;22064;42.672;23.282;2022-09-13T22:07:07;13.23;;;7.07;;
35990;SDS011;22064;42.672;23.282;2022-09-13T22:09:33;10.23;;;6.40;;
35990;SDS011;22064;42.672;23.282;2022-09-13T22:11:58;12.48;;;7.32;;
35990;SDS011;22064;42.672;23.282;2022-09-13T22:14:25;17.80;;;7.10;;
35990;SDS011;22064;42.672;23.282;2022-09-13T22:16:51;11.85;;;6.65;;
35990;SDS011;22064;42.672;23.282;2022-09-13T22:19:18;12.70;;;6.50;;
35990;SDS011;22064;42.672;23.282;2022-09-13T22:21:47;15.52;;;6.80;;
35990;SDS011;22064;42.672;23.282;2022-09-13T22:24:15;10.57;;;6.70;;
35990;SDS011;22064;42.672;23.282;2022-09-13T22:26:42;11.55;;;6.30;;
35990;SDS011;22064;42.672;23.282;2022-09-13T22:29:09;11.38;;;6.90;;
35990;SDS011;22064;42.672;23.282;2022-09-13T22:31:38;11.35;;;6.72;;
35990;SDS011;22064;42.672;23.282;2022-09-13T22:34:06;12.35;;;7.45;;
35990;SDS011;22064;42.672;23.282;2022-09-13T22:36:34;14.57;;;6.85;;
35990;SDS011;22064;42.672;23.282;2022-09-13T22:39:00;10.68;;;7.05;;
35990;SDS011;22064;42.672;23.282;2022-09-13T22:41:27;12.13;;;7.07;;
35990;SDS011;22064;42.672;23.282;2022-09-13T22:43:56;12.27;;;6.88;;
35990;SDS011;22064;42.672;23.282;2022-09-13T22:46:26;11.00;;;6.57;;
35990;SDS011;22064;42.672;23.282;2022-09-13T22:48:54;12.57;;;7.18;;
35990;SDS011;22064;42.672;23.282;2022-09-13T22:51:20;11.40;;;6.63;;
35990;SDS011;22064;42.672;23.282;2022-09-13T22:53:47;10.57;;;6.60;;
35990;SDS011;22064;42.672;23.282;2022-09-13T22:58:51;11.15;;;7.15;;
35990;SDS011;22064;42.672;23.282;2022-09-13T23:01:18;12.88;;;6.80;;
35990;SDS011;22064;42.672;23.282;2022-09-13T23:03:45;12.70;;;7.28;;
35990;SDS011;22064;42.672;23.282;2022-09-13T23:06:11;14.48;;;7.53;;
35990;SDS011;22064;42.672;23.282;2022-09-13T23:08:38;12.00;;;6.85;;
35990;SDS011;22064;42.672;23.282;2022-09-13T23:13:41;13.27;;;6.90;;
35990;SDS011;22064;42.672;23.282;2022-09-13T23:16:10;11.38;;;7.32;;
35990;SDS011;22064;42.672;23.282;2022-09-13T23:18:39;11.80;;;7.25;;
35990;SDS011;22064;42.672;23.282;2022-09-13T23:21:05;12.27;;;7.15;;
35990;SDS011;22064;42.672;23.282;2022-09-13T23:23:31;13.15;;;7.63;;
35990;SDS011;22064;42.672;23.282;2022-09-13T23:26:04;15.55;;;7.40;;
35990;SDS011;22064;42.672;23.282;2022-09-13T23:28:30;12.65;;;7.05;;
35990;SDS011;22064;42.672;23.282;2022-09-13T23:31:05;15.10;;;7.68;;
35990;SDS011;22064;42.672;23.282;2022-09-13T23:33:43;12.97;;;7.50;;
35990;SDS011;22064;42.672;23.282;2022-09-13T23:36:11;15.15;;;7.80;;
35990;SDS011;22064;42.672;23.282;2022-09-13T23:38:38;13.75;;;7.65;;
35990;SDS011;22064;42.672;23.282;2022-09-13T23:41:05;13.02;;;7.63;;
35990;SDS011;22064;42.672;23.282;2022-09-13T23:43:31;13.00;;;6.85;;
35990;SDS011;22064;42.672;23.282;2022-09-13T23:45:56;11.57;;;7.00;;
35990;SDS011;22064;42.672;23.282;2022-09-13T23:48:22;11.27;;;7.28;;
35990;SDS011;22064;42.672;23.282;2022-09-13T23:50:48;13.27;;;7.22;;
35990;SDS011;22064;42.672;23.282;2022-09-13T23:53:25;13.02;;;6.80;;
35990;SDS011;22064;42.672;23.282;2022-09-13T23:55:51;12.32;;;7.25;;
35990;SDS011;22064;42.672;23.282;2022-09-13T23:58:16;13.35;;;7.93;;
